KLOZ/LOZ METAR and TAF weather

Enter ICAO airport designator
Station Type Date Time Source
KLOZ METAR 2021/04/13 21:53 UTC NOAA

KLOZ 132153Z AUTO VRB04KT 10SM CLR 20/08 A3008 RMK AO2 SLP182 T02000078


Station Type Date Time Source
KLOZ Decoded METAR 2021/04/13 21:53 UTC NOAA

LONDON-CORBIN AIRPORT, KY, United States (KLOZ) 37-05N 084-04W 362M
Apr 13, 2021 - 05:53 PM EDT / 2021.04.13 2153 UTC
Wind: Variable at 5 MPH (4 KT):0
Visibility: 10 mile(s):0
Sky conditions: clear
Temperature: 68.0 F (20.0 C)
Dew Point: 46.0 F (7.8 C)
Relative Humidity: 45%
Pressure (altimeter): 30.08 in. Hg (1018 hPa)
ob: KLOZ 132153Z AUTO VRB04KT 10SM CLR 20/08 A3008 RMK AO2 SLP182 T02000078
cycle: 22

Station Type Date Time Source
KLOZ TAF 2021/04/13 18:40 UTC NOAA

TAF KLOZ 131738Z 1318/1418 VRB03KT P6SM SCT050 SCT090
FM140900 VRB03KT P6SM VCSH BKN045
FM141200 VRB04KT P6SM BKN045
FM141600 VRB05KT P6SM VCSH OVC020

Example: see airport list